KMLC

Mc Alester Regional Airport

Mc Alester, Oklahoma, USA
METAR KMLC 271053Z AUTO 00000KT 10SM CLR 19/19 A2985 RMK AO2 SLP099 T01940189
Observed Flight Rules
May-27 @ 10:53 UTC (an hour ago) Visual Flight Rules
Visibility Clouds
10 miles
  • Clear skies
Temperatures Readings
Current 19°C / 66°F
Dewpoint 19°C / 66°F
Humidity 100%
Altimeter 29.85" Hg
Pressure 1009.9 hPa
Elevation 232
METAR KMLC 271053Z AUTO 00000KT 10SM CLR 19/19 A2985 RMK AO2 SLP099 T01940189
Observed Flight Rules
May-27 @ 10:53 UTC
(an hour ago)
VFR
Clouds
  • Clear skies
Temperature Dewpoint
19°C / 66°F 19°C / 66°F
Humidity Altimeter Pressure
100% 29.85" Hg 1009.9 hPa